createdAt,value
2023-05-19T00:02:15.793Z,49.25
2023-05-19T00:05:19.441Z,49.60
2023-05-19T00:08:21.889Z,49.66
2023-05-19T00:11:26.858Z,48.22
2023-05-19T00:14:29.889Z,49.17
2023-05-19T00:17:34.340Z,48.50
2023-05-19T00:20:37.731Z,47.88
2023-05-19T00:23:40.311Z,48.37
2023-05-19T00:26:44.320Z,48.99
2023-05-19T00:29:46.899Z,50.58
2023-05-19T00:32:49.758Z,50.20
2023-05-19T00:35:52.298Z,50.45
2023-05-19T00:38:54.894Z,50.21
2023-05-19T00:41:58.824Z,51.01
2023-05-19T00:45:01.383Z,50.64
2023-05-19T00:48:04.221Z,51.52
2023-05-19T00:51:06.911Z,51.25
2023-05-19T00:54:09.548Z,52.41
2023-05-19T00:57:13.683Z,51.98
2023-05-19T01:00:17.212Z,52.71
2023-05-19T01:03:20.610Z,52.07
2023-05-19T01:06:23.516Z,51.86
2023-05-19T01:09:26.100Z,52.17
2023-05-19T01:12:30.635Z,51.52
2023-05-19T01:15:35.821Z,51.50
2023-05-19T01:18:45.483Z,51.44
2023-05-19T01:22:23.735Z,50.87
2023-05-19T01:25:43.735Z,51.46
2023-05-19T01:29:10.059Z,50.60
2023-05-19T01:32:17.133Z,50.26
2023-05-19T01:35:20.306Z,49.28
2023-05-19T01:38:23.204Z,48.52
2023-05-19T01:41:26.456Z,48.83
2023-05-19T01:44:29.726Z,50.14
2023-05-19T01:47:34.065Z,51.04
2023-05-19T01:50:36.833Z,50.88
2023-05-19T01:53:39.436Z,51.51
2023-05-19T01:56:46.482Z,52.01
2023-05-19T01:59:54.989Z,52.33
2023-05-19T02:03:06.384Z,51.78
2023-05-19T02:06:20.470Z,51.47
2023-05-19T02:09:26.379Z,50.03
2023-05-19T02:12:31.320Z,49.69
2023-05-19T02:15:39.543Z,50.03
2023-05-19T02:18:45.526Z,49.69
2023-05-19T02:21:48.251Z,49.58
2023-05-19T02:24:51.761Z,49.79
2023-05-19T02:27:54.282Z,49.86
2023-05-19T02:30:56.858Z,50.06
2023-05-19T02:34:00.847Z,49.67
2023-05-19T02:37:03.416Z,49.68
2023-05-19T02:40:08.221Z,49.97
2023-05-19T02:43:11.073Z,50.31
2023-05-19T02:46:13.584Z,50.51
2023-05-19T02:49:17.475Z,50.65
2023-05-19T02:52:20.142Z,50.33
2023-05-19T02:55:22.709Z,50.91
2023-05-19T02:58:25.303Z,50.55
2023-05-19T03:01:27.847Z,50.89
2023-05-19T03:04:32.198Z,51.24
2023-05-19T03:07:34.961Z,50.84
2023-05-19T03:10:37.575Z,51.21
2023-05-19T03:13:40.198Z,51.78
2023-05-19T03:16:43.076Z,51.96
2023-05-19T03:19:47.039Z,51.96
2023-05-19T03:22:49.720Z,51.45
2023-05-19T03:25:54.164Z,51.50
2023-05-19T03:28:56.796Z,51.82
2023-05-19T03:31:59.849Z,51.75
2023-05-19T03:35:04.006Z,53.09
2023-05-19T03:38:06.642Z,54.29
2023-05-19T03:41:09.266Z,54.26
2023-05-19T03:44:11.861Z,54.00
2023-05-19T03:47:14.461Z,55.01
2023-05-19T03:50:18.364Z,55.72
2023-05-19T03:53:20.960Z,54.67
2023-05-19T03:56:27.823Z,53.88
2023-05-19T03:59:31.343Z,53.95
2023-05-19T04:02:34.104Z,54.63
2023-05-19T04:05:38.163Z,54.31
2023-05-19T04:08:40.884Z,53.89
2023-05-19T04:11:44.122Z,53.79
2023-05-19T04:14:46.793Z,53.89
2023-05-19T04:17:49.415Z,53.53
2023-05-19T04:20:53.321Z,53.44
2023-05-19T04:23:55.931Z,53.21
2023-05-19T04:27:02.229Z,52.86
2023-05-19T04:30:05.242Z,53.23
2023-05-19T04:33:08.002Z,52.12
2023-05-19T04:36:13.793Z,51.92
2023-05-19T04:39:16.422Z,51.52
2023-05-19T04:42:20.257Z,52.01
2023-05-19T04:45:23.263Z,51.71
2023-05-19T04:48:26.065Z,51.39
2023-05-19T04:51:31.272Z,50.90
2023-05-19T04:54:34.074Z,51.35
2023-05-19T04:57:37.521Z,50.83
2023-05-19T05:00:40.288Z,50.70
2023-05-19T05:03:43.213Z,50.23
2023-05-19T05:06:48.778Z,50.10
2023-05-19T05:09:51.603Z,49.80
2023-05-19T05:12:54.769Z,49.83
2023-05-19T05:15:58.492Z,49.21
2023-05-19T05:19:01.976Z,49.64
2023-05-19T05:22:06.169Z,49.32
2023-05-19T05:25:09.401Z,49.12
2023-05-19T05:28:12.073Z,48.54
2023-05-19T05:31:14.787Z,48.71
2023-05-19T05:34:17.689Z,47.86
2023-05-19T05:37:21.679Z,47.29
2023-05-19T05:40:24.332Z,47.05
2023-05-19T05:43:27.041Z,47.78
2023-05-19T05:46:29.670Z,48.17
2023-05-19T05:49:32.980Z,48.36
2023-05-19T05:52:38.179Z,48.06
2023-05-19T05:55:41.470Z,48.47
2023-05-19T05:58:44.056Z,47.92
2023-05-19T06:01:46.917Z,47.64
2023-05-19T06:04:49.587Z,48.00
2023-05-19T06:07:53.469Z,47.96
2023-05-19T06:10:56.113Z,47.40
2023-05-19T06:13:58.753Z,47.39
2023-05-19T06:17:01.366Z,46.75
2023-05-19T06:20:05.652Z,46.29
2023-05-19T06:23:09.556Z,45.90
2023-05-19T06:26:12.308Z,45.58
2023-05-19T06:29:14.983Z,45.52
2023-05-19T06:32:17.708Z,45.17
2023-05-19T06:35:20.460Z,44.86
2023-05-19T06:38:24.531Z,44.44
2023-05-19T06:41:27.529Z,44.59
2023-05-19T06:44:30.111Z,44.26
2023-05-19T06:47:32.706Z,44.61
2023-05-19T06:50:35.569Z,44.08
2023-05-19T06:53:39.822Z,43.85
2023-05-19T06:56:42.719Z,42.67
2023-05-19T06:59:46.717Z,42.19
2023-05-19T07:02:49.403Z,41.91
2023-05-19T07:05:52.201Z,41.93
2023-05-19T07:08:56.710Z,42.26
2023-05-19T07:12:01.248Z,41.75
2023-05-19T07:15:04.329Z,41.70
2023-05-19T07:18:07.188Z,41.01
2023-05-19T07:21:09.782Z,40.58
2023-05-19T07:24:13.659Z,39.93
2023-05-19T07:27:16.205Z,40.17
2023-05-19T07:30:18.813Z,40.74
2023-05-19T07:33:21.455Z,40.25
2023-05-19T07:36:24.100Z,39.14
2023-05-19T07:39:29.677Z,38.61
2023-05-19T07:42:32.412Z,37.86
2023-05-19T07:45:35.201Z,37.32
2023-05-19T07:48:38.138Z,36.96
2023-05-19T07:51:41.796Z,36.21
2023-05-19T07:54:46.722Z,36.03
2023-05-19T07:57:49.813Z,36.14
2023-05-19T08:00:53.278Z,36.54
2023-05-19T08:03:56.004Z,37.47
2023-05-19T08:06:59.002Z,38.16
2023-05-19T08:10:03.135Z,38.33
2023-05-19T08:13:05.838Z,38.96
2023-05-19T08:16:08.583Z,39.69
2023-05-19T08:19:11.282Z,39.54
2023-05-19T08:22:14.082Z,39.47
2023-05-19T08:25:19.732Z,39.38
2023-05-19T08:28:22.542Z,38.69
2023-05-19T08:31:25.503Z,38.27
2023-05-19T08:34:28.140Z,38.14
2023-05-19T08:37:33.254Z,37.70
2023-05-19T08:40:38.835Z,38.31
2023-05-19T08:43:41.442Z,37.66
2023-05-19T08:46:44.305Z,38.20
2023-05-19T08:49:48.475Z,37.83
2023-05-19T08:52:53.634Z,38.04
2023-05-19T08:56:04.093Z,37.70
2023-05-19T08:59:07.390Z,37.20
2023-05-19T09:02:12.116Z,37.19
2023-05-19T09:05:15.950Z,37.45
2023-05-19T09:08:18.795Z,37.13
2023-05-19T09:11:23.041Z,37.17
2023-05-19T09:14:25.771Z,36.93
2023-05-19T09:17:28.477Z,37.24
2023-05-19T09:20:31.835Z,37.88
2023-05-19T09:23:34.498Z,38.14
2023-05-19T09:26:39.928Z,37.49
2023-05-19T09:29:42.728Z,37.07
2023-05-19T09:32:45.619Z,37.17
2023-05-19T09:35:48.630Z,36.93
2023-05-19T09:38:51.294Z,37.48
2023-05-19T09:41:56.247Z,36.72
2023-05-19T09:45:02.715Z,36.56
2023-05-19T09:48:06.256Z,36.04
2023-05-19T09:51:10.362Z,35.46
2023-05-19T09:54:16.168Z,35.24
2023-05-19T09:57:27.071Z,34.16
2023-05-19T10:00:31.014Z,34.71
2023-05-19T10:03:35.125Z,33.81
2023-05-19T10:06:38.466Z,33.93
2023-05-19T10:09:42.696Z,34.01
2023-05-19T10:12:47.263Z,34.82
2023-05-19T10:19:00.895Z,36.50
2023-05-19T10:22:03.531Z,36.12
2023-05-19T10:25:06.940Z,37.10
2023-05-19T10:28:14.272Z,36.70
2023-05-19T10:31:19.741Z,37.62
2023-05-19T10:34:37.412Z,37.00
2023-05-19T10:37:46.363Z,36.99
2023-05-19T10:40:55.143Z,36.14
2023-05-19T10:44:09.006Z,36.22
2023-05-19T10:47:12.679Z,36.71
2023-05-19T10:50:15.688Z,37.29
2023-05-19T10:53:19.487Z,37.86
2023-05-19T10:56:33.825Z,37.83
2023-05-19T10:59:39.343Z,38.07
2023-05-19T11:02:43.360Z,38.28
2023-05-19T11:05:46.479Z,38.17
2023-05-19T11:08:54.175Z,38.48
2023-05-19T11:11:57.093Z,37.94
2023-05-19T11:15:01.041Z,38.38
2023-05-19T11:18:04.097Z,38.40
2023-05-19T11:21:06.940Z,38.19
2023-05-19T11:24:09.764Z,37.64
2023-05-19T11:27:22.759Z,38.83
2023-05-19T11:30:26.629Z,38.85
2023-05-19T11:33:30.132Z,38.91
2023-05-19T11:36:32.837Z,38.45
2023-05-19T11:39:35.841Z,38.52
2023-05-19T11:42:38.566Z,38.33
2023-05-19T11:45:42.792Z,38.28
2023-05-19T11:48:48.368Z,37.98
2023-05-19T11:51:50.961Z,37.91
2023-05-19T11:54:53.518Z,37.84
2023-05-19T11:58:04.044Z,38.58
2023-05-19T12:01:10.214Z,38.92
2023-05-19T12:04:12.800Z,38.94
2023-05-19T12:07:18.349Z,38.55
2023-05-19T12:10:24.093Z,38.53
2023-05-19T12:13:26.771Z,38.55
2023-05-19T12:16:36.790Z,38.58
2023-05-19T12:19:39.502Z,38.10
2023-05-19T12:22:42.333Z,37.38
2023-05-19T12:25:45.100Z,36.56
2023-05-19T12:28:47.898Z,36.32
2023-05-19T12:31:51.976Z,35.66
2023-05-19T12:34:56.417Z,36.25
2023-05-19T12:38:03.928Z,36.18
2023-05-19T12:41:06.976Z,35.93
2023-05-19T12:44:16.222Z,35.99
2023-05-19T12:47:21.090Z,36.22
2023-05-19T12:50:31.365Z,36.55
2023-05-19T12:53:34.712Z,36.23
2023-05-19T12:56:37.397Z,36.62
2023-05-19T12:59:40.171Z,37.65
2023-05-19T13:02:59.055Z,38.00
2023-05-19T13:06:01.744Z,38.09
2023-05-19T13:09:04.848Z,38.42
2023-05-19T13:12:07.856Z,38.65
2023-05-19T13:15:11.139Z,38.23
2023-05-19T13:18:15.263Z,37.15
2023-05-19T13:21:18.029Z,36.72
2023-05-19T13:24:20.827Z,36.49
2023-05-19T13:27:24.754Z,36.27
2023-05-19T13:30:27.812Z,35.95
2023-05-19T13:33:31.927Z,36.25
2023-05-19T13:36:35.095Z,36.68
2023-05-19T13:39:37.742Z,37.57
2023-05-19T13:42:40.481Z,37.82
2023-05-19T13:45:44.724Z,38.29
2023-05-19T13:48:48.630Z,38.69
2023-05-19T13:51:51.423Z,38.94
2023-05-19T13:54:54.514Z,38.95
2023-05-19T13:57:57.161Z,38.84
2023-05-19T14:01:00.073Z,38.48
2023-05-19T14:04:05.312Z,38.60
2023-05-19T14:07:09.644Z,38.61
2023-05-19T14:10:12.592Z,38.78
2023-05-19T14:16:28.760Z,37.50
2023-05-19T14:19:32.791Z,36.88
2023-05-19T14:22:35.386Z,36.34
2023-05-19T14:25:38.118Z,36.12
2023-05-19T14:28:40.802Z,35.64
2023-05-19T14:31:43.441Z,35.83
2023-05-19T14:34:47.639Z,35.71
2023-05-19T14:37:50.324Z,35.75
2023-05-19T14:40:53.015Z,35.95
2023-05-19T14:43:56.117Z,36.57
2023-05-19T14:46:59.018Z,36.44
2023-05-19T14:50:03.198Z,37.38
2023-05-19T14:53:06.023Z,37.36
2023-05-19T14:56:09.302Z,37.41
2023-05-19T14:59:11.853Z,37.62
2023-05-19T15:02:14.510Z,38.09
2023-05-19T15:05:18.726Z,38.26
2023-05-19T15:08:21.405Z,38.19
2023-05-19T15:11:24.019Z,38.52
2023-05-19T15:14:27.936Z,38.58
2023-05-19T15:17:32.033Z,38.88
2023-05-19T15:20:36.246Z,39.06
2023-05-19T15:23:38.986Z,39.43
2023-05-19T15:26:41.768Z,38.91
2023-05-19T15:29:44.422Z,38.77
2023-05-19T15:32:47.017Z,38.33
2023-05-19T15:35:52.048Z,38.41
2023-05-19T15:38:54.704Z,38.10
2023-05-19T15:41:57.539Z,38.43
2023-05-19T15:45:00.240Z,38.29
2023-05-19T15:48:02.775Z,37.89
2023-05-19T15:51:07.013Z,38.06
2023-05-19T15:54:09.593Z,38.13
2023-05-19T15:57:13.498Z,38.07
2023-05-19T16:00:16.808Z,38.05
2023-05-19T16:03:19.393Z,38.38
2023-05-19T16:06:24.629Z,38.24
2023-05-19T16:09:27.343Z,38.38
2023-05-19T16:12:29.946Z,38.58
2023-05-19T16:15:32.498Z,38.32
2023-05-19T16:18:35.094Z,38.33
2023-05-19T16:21:39.255Z,38.23
2023-05-19T16:24:42.022Z,37.50
2023-05-19T16:27:44.751Z,37.02
2023-05-19T16:30:47.422Z,36.72
2023-05-19T16:33:50.098Z,36.89
2023-05-19T16:36:53.952Z,36.60
2023-05-19T16:39:56.615Z,36.33
2023-05-19T16:42:59.523Z,36.10
2023-05-19T16:46:03.470Z,35.68
2023-05-19T16:49:06.813Z,34.72
2023-05-19T16:52:10.662Z,33.15
2023-05-19T16:55:17.245Z,31.80
2023-05-19T16:58:19.969Z,30.02
2023-05-19T17:01:22.724Z,27.10
2023-05-19T17:04:25.428Z,23.39
2023-05-19T17:07:30.040Z,24.69
2023-05-19T17:10:32.751Z,26.33
2023-05-19T17:13:36.683Z,27.25
2023-05-19T17:16:39.417Z,28.14
2023-05-19T17:19:42.169Z,28.99
2023-05-19T17:22:46.195Z,30.28
2023-05-19T17:25:48.807Z,31.44
2023-05-19T17:28:51.445Z,33.15
2023-05-19T17:31:54.207Z,34.21
2023-05-19T17:34:56.956Z,34.92
2023-05-19T17:38:01.090Z,35.23
2023-05-19T17:41:09.556Z,35.69
2023-05-19T17:44:12.611Z,36.09
2023-05-19T17:47:15.156Z,36.26
2023-05-19T17:50:17.960Z,36.33
2023-05-19T17:53:22.523Z,36.81
2023-05-19T17:56:25.826Z,37.35
2023-05-19T17:59:28.929Z,37.98
2023-05-19T18:02:31.720Z,38.69
2023-05-19T18:05:34.852Z,39.39
2023-05-19T18:08:39.937Z,39.91
2023-05-19T18:11:42.552Z,40.32
2023-05-19T18:14:45.209Z,40.82
2023-05-19T18:17:48.219Z,41.41
2023-05-19T18:20:50.829Z,42.06
2023-05-19T18:23:54.744Z,42.22
2023-05-19T18:26:57.367Z,42.53
2023-05-19T18:30:00.347Z,43.43
2023-05-19T18:33:04.041Z,43.77
2023-05-19T18:36:07.343Z,44.02
2023-05-19T18:39:11.444Z,44.88
2023-05-19T18:42:14.132Z,45.76
2023-05-19T18:45:16.880Z,46.12
2023-05-19T18:48:19.502Z,47.04
2023-05-19T18:51:22.266Z,47.31
2023-05-19T18:54:26.292Z,49.57
2023-05-19T18:57:28.887Z,49.07
2023-05-19T19:00:31.576Z,49.79
2023-05-19T19:03:34.285Z,50.66
2023-05-19T19:06:36.884Z,51.96
2023-05-19T19:09:43.813Z,52.88
2023-05-19T19:12:46.539Z,53.48
2023-05-19T19:15:49.193Z,54.30
2023-05-19T19:18:51.887Z,54.55
2023-05-19T19:21:54.732Z,54.68
2023-05-19T19:24:58.685Z,54.67
2023-05-19T19:28:02.187Z,54.64
2023-05-19T19:31:04.725Z,54.92
2023-05-19T19:34:09.157Z,54.75
2023-05-19T19:37:14.368Z,54.76
2023-05-19T19:40:18.666Z,54.63
2023-05-19T19:43:21.346Z,55.12
2023-05-19T19:46:23.883Z,55.34
2023-05-19T19:49:26.929Z,55.57
2023-05-19T19:52:29.635Z,55.66
2023-05-19T19:55:33.678Z,55.00
2023-05-19T19:58:36.271Z,54.74
2023-05-19T20:01:38.908Z,54.77
2023-05-19T20:04:41.729Z,54.85
2023-05-19T20:07:44.664Z,54.40
2023-05-19T20:10:49.804Z,54.77
2023-05-19T20:13:52.852Z,54.66
2023-05-19T20:16:55.692Z,54.63
2023-05-19T20:19:59.841Z,54.48
2023-05-19T20:23:02.523Z,54.64
2023-05-19T20:26:12.417Z,54.73
2023-05-19T20:29:16.812Z,54.45
2023-05-19T20:32:19.221Z,54.73
2023-05-19T20:35:22.485Z,54.65
2023-05-19T20:38:25.193Z,54.83
2023-05-19T20:41:29.210Z,54.52
2023-05-19T20:44:31.819Z,54.30
2023-05-19T20:47:34.500Z,54.64
2023-05-19T20:50:37.087Z,54.61
2023-05-19T20:53:39.708Z,54.64
2023-05-19T20:56:44.035Z,54.11
2023-05-19T20:59:46.716Z,54.04
2023-05-19T21:02:49.627Z,54.08
2023-05-19T21:05:52.490Z,53.26
2023-05-19T21:08:55.583Z,53.39
2023-05-19T21:11:59.836Z,53.87
2023-05-19T21:15:03.681Z,54.18
2023-05-19T21:18:07.318Z,53.48
2023-05-19T21:21:10.072Z,53.89
2023-05-19T21:24:13.108Z,54.33
2023-05-19T21:27:17.107Z,54.25
2023-05-19T21:30:20.259Z,54.41
2023-05-19T21:33:23.071Z,54.29
2023-05-19T21:36:25.785Z,54.58
2023-05-19T21:39:28.566Z,54.93
2023-05-19T21:42:32.530Z,55.29
2023-05-19T21:45:35.076Z,55.95
2023-05-19T21:48:37.677Z,56.41
2023-05-19T21:51:40.192Z,56.64
2023-05-19T21:54:43.106Z,56.88
2023-05-19T21:57:47.065Z,57.37
2023-05-19T22:00:50.779Z,58.44
2023-05-19T22:03:53.964Z,59.18
2023-05-19T22:06:56.615Z,59.66
2023-05-19T22:09:59.197Z,60.33
2023-05-19T22:13:03.092Z,60.32
2023-05-19T22:16:06.143Z,60.98
2023-05-19T22:19:08.835Z,61.29
2023-05-19T22:22:14.102Z,61.26
2023-05-19T22:25:17.623Z,61.32
2023-05-19T22:28:21.498Z,61.65
2023-05-19T22:31:24.142Z,61.80
2023-05-19T22:34:26.701Z,62.27
2023-05-19T22:37:29.610Z,62.63
2023-05-19T22:40:32.516Z,62.68
2023-05-19T22:43:36.660Z,63.45
2023-05-19T22:46:39.219Z,63.03
2023-05-19T22:49:42.291Z,62.96
2023-05-19T22:52:44.927Z,62.98
2023-05-19T22:55:47.599Z,63.17
2023-05-19T22:58:51.651Z,62.98
2023-05-19T23:01:54.346Z,63.02
2023-05-19T23:04:56.963Z,62.51
2023-05-19T23:07:59.506Z,62.73
2023-05-19T23:11:02.290Z,62.41
2023-05-19T23:14:06.157Z,62.68
2023-05-19T23:17:08.903Z,63.08
2023-05-19T23:20:13.265Z,62.77
2023-05-19T23:23:17.219Z,63.26
2023-05-19T23:26:19.791Z,63.02
2023-05-19T23:29:23.690Z,63.94
2023-05-19T23:32:27.115Z,63.65
2023-05-19T23:35:29.698Z,63.02
2023-05-19T23:38:32.483Z,63.61
2023-05-19T23:41:35.160Z,63.16
2023-05-19T23:44:39.509Z,63.17
2023-05-19T23:47:42.089Z,63.07
2023-05-19T23:50:44.909Z,63.44
2023-05-19T23:53:47.471Z,63.08
2023-05-19T23:56:50.052Z,63.17
2023-05-19T23:59:53.889Z,63.67
